Time;durP1;ratioP1;P1;durP2;ratioP2;P2;SDS_P1;SDS_P2;PMS_P1;PMS_P2;Temp;Humidity;BMP_temperature;BMP_pressure;BME280_temperature;BME280_humidity;BME280_pressure;Samples;Min_cycle;Max_cycle;Signal;HPM_P1;HPM_P2
2020/12/08 00:01:32;;;;;;;15.77;7.78;;;;;;;-0.09;62.89;99847.72;5095385;28;20109;-68
2020/12/08 00:03:58;;;;;;;10.60;5.03;;;;;;;-0.08;62.76;99854.59;5094480;28;20515;-69
2020/12/08 00:06:24;;;;;;;13.00;6.47;;;;;;;-0.09;63.02;99867.47;5094825;28;20075;-68
2020/12/08 00:08:50;;;;;;;13.68;8.23;;;;;;;-0.13;62.79;99851.19;5094896;28;20052;-68
2020/12/08 00:11:18;;;;;;;10.57;6.95;;;;;;;-0.12;62.97;99852.88;5095141;28;20040;-68
2020/12/08 00:13:44;;;;;;;15.82;7.82;;;;;;;-0.11;62.88;99859.75;5094534;28;20082;-67
2020/12/08 00:16:11;;;;;;;16.20;8.00;;;;;;;-0.10;62.58;99851.16;5094545;28;20571;-68
2020/12/08 00:18:37;;;;;;;9.75;5.18;;;;;;;-0.12;62.62;99868.34;5094727;28;20094;-69
2020/12/08 00:21:03;;;;;;;10.18;6.40;;;;;;;-0.12;62.99;99857.19;5094501;28;20123;-68
2020/12/08 00:23:29;;;;;;;17.35;8.40;;;;;;;-0.11;62.54;99853.75;5094708;28;20093;-68
2020/12/08 00:25:56;;;;;;;14.25;8.15;;;;;;;-0.10;62.68;99860.63;5094265;28;20134;-68
2020/12/08 00:28:23;;;;;;;13.05;8.60;;;;;;;-0.11;62.72;99851.16;5094556;28;20040;-68
2020/12/08 00:30:50;;;;;;;18.42;7.22;;;;;;;-0.11;62.61;99853.75;5094547;28;20479;-69
2020/12/08 00:33:16;;;;;;;12.65;6.90;;;;;;;-0.13;62.62;99850.31;5094413;28;20128;-69
2020/12/08 00:35:42;;;;;;;16.65;7.90;;;;;;;-0.16;62.73;99861.50;5094115;28;20075;-69
2020/12/08 00:38:08;;;;;;;13.30;6.82;;;;;;;-0.17;62.30;99848.59;5094355;28;20135;-68
2020/12/08 00:40:34;;;;;;;16.38;8.73;;;;;;;-0.20;62.61;99864.06;5094376;28;20079;-70
2020/12/08 00:43:00;;;;;;;15.68;6.53;;;;;;;-0.18;62.46;99852.06;5094327;28;20093;-69
2020/12/08 00:45:27;;;;;;;13.38;7.57;;;;;;;-0.21;62.52;99858.03;5094220;28;20505;-69
2020/12/08 00:47:54;;;;;;;14.73;7.53;;;;;;;-0.22;62.39;99858.03;5093880;28;20087;-69
2020/12/08 00:50:20;;;;;;;13.18;6.35;;;;;;;-0.23;62.53;99849.44;5094567;28;20090;-70
2020/12/08 00:52:46;;;;;;;16.08;8.57;;;;;;;-0.24;62.28;99862.34;5093978;28;20094;-69
2020/12/08 00:55:12;;;;;;;15.52;8.52;;;;;;;-0.24;62.38;99865.78;5094261;28;20126;-68
2020/12/08 00:57:38;;;;;;;12.32;7.00;;;;;;;-0.23;62.49;99859.75;5093865;28;20123;-68
2020/12/08 01:00:05;;;;;;;14.93;7.22;;;;;;;-0.25;62.38;99863.19;5094181;28;20048;-70
2020/12/08 01:02:33;;;;;;;18.23;7.32;;;;;;;-0.27;62.40;99852.03;5093636;28;20408;-69
2020/12/08 01:04:59;;;;;;;10.45;5.18;;;;;;;-0.28;62.37;99858.91;5093423;28;20500;-69
2020/12/08 01:07:25;;;;;;;9.13;5.35;;;;;;;-0.31;62.35;99856.34;5093076;28;20456;-68
2020/12/08 01:09:51;;;;;;;14.68;8.57;;;;;;;-0.29;62.39;99864.06;5094234;28;20060;-68
2020/12/08 01:12:17;;;;;;;10.75;6.45;;;;;;;-0.29;62.36;99859.78;5093768;28;20087;-70
2020/12/08 01:14:43;;;;;;;12.02;6.25;;;;;;;-0.33;62.19;99866.66;5093844;28;20121;-69
2020/12/08 01:17:10;;;;;;;10.65;6.18;;;;;;;-0.34;62.15;99858.91;5093583;28;20077;-69
2020/12/08 01:19:37;;;;;;;12.30;6.88;;;;;;;-0.36;62.29;99866.66;5093776;28;20048;-69
2020/12/08 01:22:03;;;;;;;11.57;6.60;;;;;;;-0.35;62.10;99860.63;5093536;28;20048;-69
2020/12/08 01:24:29;;;;;;;8.60;5.55;;;;;;;-0.37;62.34;99859.78;5093612;28;20052;-69
2020/12/08 01:26:57;;;;;;;13.90;6.75;;;;;;;-0.35;62.30;99860.63;5093201;28;20128;-68
2020/12/08 01:29:23;;;;;;;10.50;6.72;;;;;;;-0.35;62.27;99863.22;5093568;28;20139;-68
2020/12/08 01:31:49;;;;;;;10.68;6.30;;;;;;;-0.37;62.41;99867.50;5093192;28;20091;-68
2020/12/08 01:34:15;;;;;;;13.35;7.20;;;;;;;-0.37;62.47;99861.50;5093541;28;20084;-69
2020/12/08 01:36:42;;;;;;;12.73;7.60;;;;;;;-0.33;62.32;99863.22;5093762;28;20079;-68
2020/12/08 01:39:08;;;;;;;17.83;7.30;;;;;;;-0.35;62.36;99855.50;5093245;28;20105;-69
2020/12/08 01:41:34;;;;;;;9.43;6.03;;;;;;;-0.30;62.48;99868.34;5093123;28;20079;-68
2020/12/08 01:44:01;;;;;;;10.77;6.28;;;;;;;-0.29;62.54;99861.50;5093173;28;20070;-69
2020/12/08 01:46:27;;;;;;;9.73;6.40;;;;;;;-0.31;62.48;99862.34;5093207;28;20121;-69
2020/12/08 01:48:55;;;;;;;13.30;7.22;;;;;;;-0.31;62.56;99864.06;5092268;28;20385;-68
2020/12/08 01:51:22;;;;;;;9.13;5.25;;;;;;;-0.30;62.56;99863.22;5093079;28;20471;-69
2020/12/08 01:53:51;;;;;;;13.15;7.13;;;;;;;-0.29;62.43;99871.78;5092774;28;20059;-68
2020/12/08 01:56:18;;;;;;;14.60;7.03;;;;;;;-0.29;62.37;99879.53;5093288;28;20080;-70
2020/12/08 01:58:44;;;;;;;13.00;7.30;;;;;;;-0.32;62.42;99870.94;5093021;28;20127;-69
2020/12/08 02:01:13;;;;;;;10.55;6.82;;;;;;;-0.34;62.44;99872.66;5093128;28;20071;-70
2020/12/08 02:03:40;;;;;;;11.98;7.38;;;;;;;-0.33;62.57;99871.81;5092288;28;20542;-68
2020/12/08 02:06:06;;;;;;;9.40;4.20;;;;;;;-0.32;62.63;99876.09;5092486;28;20083;-69
2020/12/08 02:08:34;;;;;;;6.65;4.60;;;;;;;-0.31;62.47;99882.09;5092322;28;20109;-69
2020/12/08 02:11:02;;;;;;;14.18;8.02;;;;;;;-0.29;62.52;99884.66;5092844;28;20120;-69
2020/12/08 02:13:29;;;;;;;19.02;5.45;;;;;;;-0.22;62.57;99876.06;5092528;28;20075;-68
2020/12/08 02:15:55;;;;;;;8.82;5.10;;;;;;;-0.23;62.56;99876.94;5092743;28;20044;-69
2020/12/08 02:18:22;;;;;;;11.75;6.55;;;;;;;-0.24;62.58;99878.66;5092360;28;20135;-69
2020/12/08 02:20:55;;;;;;;12.73;7.45;;;;;;;-0.25;62.71;99871.78;5092635;28;20099;-68
2020/12/08 02:23:21;;;;;;;12.63;8.25;;;;;;;-0.22;62.48;99870.91;5092515;28;20248;-68
2020/12/08 02:25:54;;;;;;;8.65;5.03;;;;;;;-0.24;62.31;99875.22;5092446;28;20091;-69
2020/12/08 02:28:20;;;;;;;14.93;7.38;;;;;;;-0.25;62.63;99873.50;5092035;28;20044;-68
2020/12/08 02:30:46;;;;;;;9.75;6.18;;;;;;;-0.24;62.45;99864.91;5092114;28;20105;-68
2020/12/08 02:33:13;;;;;;;14.23;8.23;;;;;;;-0.26;62.27;99862.34;5092102;28;20086;-68
2020/12/08 02:35:40;;;;;;;12.52;6.93;;;;;;;-0.24;62.71;99857.19;5092411;28;20048;-67
2020/12/08 02:38:07;;;;;;;13.75;7.13;;;;;;;-0.25;62.49;99861.47;5091805;28;20412;-69
2020/12/08 02:40:33;;;;;;;7.40;4.32;;;;;;;-0.27;62.71;99855.47;5092501;28;20075;-68
2020/12/08 02:42:59;;;;;;;11.00;5.85;;;;;;;-0.25;62.15;99866.63;5091960;28;20127;-70
2020/12/08 02:45:25;;;;;;;7.75;5.28;;;;;;;-0.24;62.37;99864.91;5092194;28;20139;-68
2020/12/08 02:47:51;;;;;;;7.68;4.45;;;;;;;-0.23;62.58;99864.06;5091267;28;20126;-68
2020/12/08 02:50:18;;;;;;;10.50;5.80;;;;;;;-0.24;62.39;99864.91;5092275;28;20147;-68
2020/12/08 02:52:44;;;;;;;12.52;7.53;;;;;;;-0.24;62.16;99867.50;5091811;28;20598;-69
2020/12/08 02:55:11;;;;;;;14.27;8.25;;;;;;;-0.25;62.18;99870.94;5091852;28;20045;-69
2020/12/08 02:57:37;;;;;;;8.07;5.20;;;;;;;-0.27;62.08;99842.59;5091742;28;20044;-68
2020/12/08 03:00:05;;;;;;;11.80;6.32;;;;;;;-0.29;61.90;99866.63;5092036;28;20047;-68
2020/12/08 03:02:31;;;;;;;13.20;8.48;;;;;;;-0.27;61.99;99864.91;5091679;28;20094;-69
2020/12/08 03:04:57;;;;;;;15.07;7.70;;;;;;;-0.29;61.88;99875.22;5091920;28;20098;-70
2020/12/08 03:07:24;;;;;;;8.13;5.70;;;;;;;-0.29;62.25;99879.53;5091493;28;20071;-69
2020/12/08 03:09:50;;;;;;;15.52;8.50;;;;;;;-0.31;61.66;99859.78;5071981;28;20091;-69
2020/12/08 03:12:17;;;;;;;8.48;5.05;;;;;;;-0.32;61.76;99862.34;5071769;28;20087;-69
2020/12/08 03:14:44;;;;;;;14.45;7.25;;;;;;;-0.33;61.78;99863.22;5091236;28;20084;-69
2020/12/08 03:17:10;;;;;;;11.25;5.75;;;;;;;-0.31;61.88;99870.06;5091832;28;20480;-68
2020/12/08 03:19:36;;;;;;;11.65;6.90;;;;;;;-0.29;61.93;99869.22;5092042;28;20075;-69
2020/12/08 03:22:02;;;;;;;14.57;8.10;;;;;;;-0.28;61.65;99860.63;5091600;28;20577;-69
2020/12/08 03:24:28;;;;;;;11.73;7.00;;;;;;;-0.31;61.45;99857.19;5091908;28;20547;-69
2020/12/08 03:26:55;;;;;;;11.85;6.10;;;;;;;-0.33;61.65;99863.22;5091739;28;20114;-69
2020/12/08 03:29:22;;;;;;;13.75;6.82;;;;;;;-0.35;61.77;99859.78;5091456;28;20479;-69
2020/12/08 03:31:48;;;;;;;9.63;4.70;;;;;;;-0.35;61.71;99865.78;5091663;28;20113;-68
2020/12/08 03:34:16;;;;;;;18.02;6.05;;;;;;;-0.35;61.73;99875.25;5091813;28;20076;-68
2020/12/08 03:36:42;;;;;;;15.68;7.13;;;;;;;-0.34;61.40;99877.81;5091516;28;20135;-69
2020/12/08 03:39:08;;;;;;;16.30;7.60;;;;;;;-0.33;61.48;99879.53;5091801;28;20109;-68
2020/12/08 03:41:34;;;;;;;11.68;6.60;;;;;;;-0.31;61.41;99882.09;5091458;28;20044;-69
2020/12/08 03:44:00;;;;;;;11.50;7.13;;;;;;;-0.30;61.14;99876.09;5091365;28;20087;-68
2020/12/08 03:46:27;;;;;;;7.53;4.68;;;;;;;-0.29;61.22;99879.53;5091433;28;20096;-68
2020/12/08 03:48:54;;;;;;;11.18;4.78;;;;;;;-0.29;61.08;99879.53;5091270;28;20530;-68
2020/12/08 03:51:22;;;;;;;9.63;4.05;;;;;;;-0.33;61.36;99878.66;5091408;28;20123;-69
2020/12/08 03:53:49;;;;;;;12.82;5.75;;;;;;;-0.34;61.11;99882.09;5091473;28;20072;-69
2020/12/08 03:56:16;;;;;;;18.17;7.38;;;;;;;-0.31;61.17;99882.97;5091425;28;20459;-69
2020/12/08 03:58:43;;;;;;;10.75;5.63;;;;;;;-0.28;60.93;99883.81;5091298;28;20546;-69
2020/12/08 04:01:14;;;;;;;11.38;5.82;;;;;;;-0.31;61.14;99880.38;5091698;28;20048;-69
2020/12/08 04:03:41;;;;;;;14.82;7.30;;;;;;;-0.29;60.74;99876.94;5091285;28;20149;-69
2020/12/08 04:06:07;;;;;;;11.82;6.90;;;;;;;-0.31;60.66;99880.38;5091357;28;20172;-70
2020/12/08 04:08:33;;;;;;;11.15;5.68;;;;;;;-0.36;61.26;99881.25;5090984;28;20083;-68
2020/12/08 04:10:59;;;;;;;14.90;8.45;;;;;;;-0.36;60.82;99879.53;5091858;28;20083;-68
2020/12/08 04:13:25;;;;;;;14.30;7.47;;;;;;;-0.33;60.76;99876.09;5094940;28;20072;-68
2020/12/08 04:15:52;;;;;;;16.23;7.90;;;;;;;-0.32;61.10;99878.66;5095115;28;20122;-70
2020/12/08 04:18:18;;;;;;;13.48;6.38;;;;;;;-0.31;61.18;99862.34;5094929;28;20151;-69
2020/12/08 04:20:45;;;;;;;11.02;6.30;;;;;;;-0.36;62.15;99868.38;5095148;28;20072;-69
2020/12/08 04:23:12;;;;;;;9.25;5.15;;;;;;;-0.47;63.55;99876.09;5094937;28;20074;-69
2020/12/08 04:25:38;;;;;;;14.52;7.43;;;;;;;-0.56;63.81;99875.22;5095123;28;20089;-69
2020/12/08 04:28:05;;;;;;;10.65;7.10;;;;;;;-0.60;64.42;99874.38;5094539;28;20076;-69
2020/12/08 04:30:32;;;;;;;11.43;5.75;;;;;;;-0.65;64.69;99865.78;5094421;28;20411;-70
2020/12/08 04:32:58;;;;;;;6.75;4.22;;;;;;;-0.67;65.46;99882.94;5094510;28;20472;-69
2020/12/08 04:35:24;;;;;;;7.03;4.57;;;;;;;-0.71;65.67;99876.06;5094509;28;20052;-69
2020/12/08 04:37:52;;;;;;;10.90;7.13;;;;;;;-0.74;66.28;99894.09;5094275;28;20071;-68
2020/12/08 04:40:18;;;;;;;14.18;8.07;;;;;;;-0.75;66.62;99887.22;5094278;28;20080;-69
2020/12/08 04:42:45;;;;;;;14.63;7.38;;;;;;;-0.77;66.57;99894.09;5094419;28;20098;-70
2020/12/08 04:45:12;;;;;;;16.42;8.75;;;;;;;-0.76;66.63;99882.94;5094821;28;20070;-68
2020/12/08 04:47:39;;;;;;;19.08;8.57;;;;;;;-0.76;66.75;99873.50;5094109;28;20044;-69
2020/12/08 04:50:06;;;;;;;13.38;7.03;;;;;;;-0.73;66.25;99877.78;5093936;28;20578;-69
2020/12/08 04:52:32;;;;;;;14.60;7.68;;;;;;;-0.72;65.98;99879.50;5094182;28;20048;-70
2020/12/08 04:54:59;;;;;;;19.70;8.88;;;;;;;-0.67;66.15;99877.78;5094508;28;20132;-69
2020/12/08 04:57:25;;;;;;;19.02;7.82;;;;;;;-0.60;65.67;99910.41;5093747;28;20492;-69
2020/12/08 05:00:01;;;;;;;18.05;6.20;;;;;;;-0.59;65.38;99886.41;5094435;28;20105;-68
2020/12/08 05:02:27;;;;;;;14.30;6.18;;;;;;;-0.55;65.29;99882.09;5094157;28;20123;-69
2020/12/08 05:04:55;;;;;;;20.05;9.88;;;;;;;-0.53;64.75;99886.38;5094095;28;20470;-70
2020/12/08 05:07:27;;;;;;;10.13;4.93;;;;;;;-0.53;64.54;99876.09;5093987;28;20149;-71
2020/12/08 05:09:54;;;;;;;14.13;5.90;;;;;;;-0.50;64.39;99886.38;5073742;28;20460;-69
2020/12/08 05:12:21;;;;;;;9.90;5.05;;;;;;;-0.47;64.35;99877.81;5073406;28;20048;-69
2020/12/08 05:14:47;;;;;;;12.15;6.65;;;;;;;-0.45;64.23;99879.50;5093958;28;20080;-69
2020/12/08 05:17:21;;;;;;;7.93;4.40;;;;;;;-0.44;64.18;99888.94;5093883;28;20072;-69
2020/12/08 05:19:47;;;;;;;6.82;4.45;;;;;;;-0.43;63.36;99888.09;5093703;28;20044;-68
2020/12/08 05:22:13;;;;;;;7.78;4.70;;;;;;;-0.44;63.15;99888.09;5093365;28;20075;-69
2020/12/08 05:24:40;;;;;;;14.63;7.00;;;;;;;-0.43;63.37;99885.53;5093638;28;20083;-69
2020/12/08 05:27:07;;;;;;;11.57;6.55;;;;;;;-0.39;63.30;99895.00;5093558;28;20145;-68
2020/12/08 05:29:35;;;;;;;9.70;6.65;;;;;;;-0.38;62.95;99881.25;5093355;28;20105;-68
2020/12/08 05:32:23;;;;;;;7.88;4.78;;;;;;;-0.36;62.87;99888.97;5093623;28;20040;-69
2020/12/08 05:34:53;;;;;;;7.32;4.47;;;;;;;-0.38;62.99;99888.97;5093709;28;20052;-68
2020/12/08 05:37:20;;;;;;;7.55;4.82;;;;;;;-0.37;62.81;99893.28;5093326;28;20078;-69
2020/12/08 05:39:47;;;;;;;7.95;4.57;;;;;;;-0.36;62.67;99889.84;5093393;28;20090;-69
2020/12/08 05:42:18;;;;;;;9.10;5.85;;;;;;;-0.36;62.34;99874.38;5093370;28;20044;-68
2020/12/08 05:44:48;;;;;;;6.50;4.35;;;;;;;-0.35;62.34;99888.13;5093176;28;20052;-68
2020/12/08 05:47:18;;;;;;;9.85;6.03;;;;;;;-0.38;62.20;99891.56;5093437;28;20040;-68
2020/12/08 05:49:44;;;;;;;5.35;3.28;;;;;;;-0.35;62.53;99895.84;5092902;28;20476;-68
2020/12/08 05:52:11;;;;;;;8.48;4.22;;;;;;;-0.31;62.23;99895.84;5092681;28;20123;-70
2020/12/08 05:54:37;;;;;;;9.23;5.65;;;;;;;-0.31;62.85;99884.69;5092478;28;20083;-69
2020/12/08 05:57:14;;;;;;;12.85;7.25;;;;;;;-0.31;62.83;99892.41;5092686;28;20043;-67
2020/12/08 05:59:41;;;;;;;12.60;5.28;;;;;;;-0.31;62.50;99885.53;5092752;28;20544;-69
2020/12/08 06:02:08;;;;;;;7.22;4.65;;;;;;;-0.28;62.52;99886.38;5092829;28;20460;-70
2020/12/08 06:04:42;;;;;;;6.15;4.88;;;;;;;-0.31;62.33;99913.00;5092483;28;20234;-69
2020/12/08 06:07:08;;;;;;;7.47;4.45;;;;;;;-0.32;62.24;99888.13;5092404;28;20067;-69
2020/12/08 06:09:35;;;;;;;19.65;7.75;;;;;;;-0.32;62.19;99904.41;5092716;28;20055;-69
2020/12/08 06:12:02;;;;;;;16.95;7.82;;;;;;;-0.29;62.35;99892.41;5092482;28;20048;-70
2020/12/08 06:14:31;;;;;;;15.45;6.43;;;;;;;-0.25;62.26;99894.97;5092653;28;20491;-68
2020/12/08 06:17:02;;;;;;;17.30;8.07;;;;;;;-0.24;62.29;99888.09;5092632;28;20235;-69
2020/12/08 06:19:30;;;;;;;7.85;4.68;;;;;;;-0.23;62.05;99885.50;5092498;28;20126;-68
2020/12/08 06:21:56;;;;;;;10.20;5.38;;;;;;;-0.26;61.98;99885.53;5092389;28;20079;-70
2020/12/08 06:24:22;;;;;;;13.32;6.95;;;;;;;-0.21;62.05;99882.94;5092541;28;20101;-69
2020/12/08 06:26:48;;;;;;;11.75;5.38;;;;;;;-0.18;61.87;99888.97;5091983;28;20079;-68
2020/12/08 06:29:14;;;;;;;12.55;6.72;;;;;;;-0.15;61.78;99895.84;5091631;28;20072;-69
2020/12/08 06:31:42;;;;;;;12.77;6.70;;;;;;;-0.14;61.67;99894.97;5092158;28;20044;-68
2020/12/08 06:34:10;;;;;;;12.50;7.00;;;;;;;-0.17;61.61;99898.41;5090115;28;20483;-68
2020/12/08 06:36:37;;;;;;;17.88;8.18;;;;;;;-0.17;61.92;99901.00;5089493;28;20400;-67
2020/12/08 06:39:06;;;;;;;13.57;7.82;;;;;;;-0.14;61.51;99910.44;5090404;28;20075;-67
2020/12/08 06:41:33;;;;;;;10.13;6.00;;;;;;;-0.13;61.50;99922.47;5090497;28;20044;-67
2020/12/08 06:44:00;;;;;;;13.23;6.78;;;;;;;-0.15;61.58;99916.44;5089959;28;20072;-66
2020/12/08 06:46:26;;;;;;;12.60;7.32;;;;;;;-0.14;61.46;99918.16;5090776;28;20071;-67
2020/12/08 06:48:59;;;;;;;11.90;6.32;;;;;;;-0.15;61.43;99906.16;5090425;28;20109;-69
2020/12/08 06:51:26;;;;;;;15.32;6.40;;;;;;;-0.15;61.30;99919.03;5090683;28;20075;-67
2020/12/08 06:53:53;;;;;;;7.82;4.88;;;;;;;-0.14;61.42;99913.00;5091878;28;20088;-67
2020/12/08 06:56:27;;;;;;;8.32;5.10;;;;;;;-0.15;61.69;99935.34;5091611;28;20125;-67
2020/12/08 06:58:54;;;;;;;4.90;3.67;;;;;;;-0.14;61.82;99925.91;5091309;28;20089;-68
2020/12/08 07:01:20;;;;;;;17.20;8.35;;;;;;;-0.15;61.82;99927.63;5091603;28;20079;-67
2020/12/08 07:03:46;;;;;;;8.80;4.40;;;;;;;-0.16;61.94;99925.03;5091355;28;20048;-68
2020/12/08 07:06:12;;;;;;;7.63;4.50;;;;;;;-0.17;61.85;99925.91;5091952;28;20083;-68
2020/12/08 07:08:41;;;;;;;13.90;6.55;;;;;;;-0.16;61.97;99927.63;5091851;28;20086;-68
2020/12/08 07:11:16;;;;;;;6.78;4.13;;;;;;;-0.17;61.94;99931.06;5091482;28;20052;-68
2020/12/08 07:13:54;;;;;;;20.70;8.15;;;;;;;-0.17;62.02;99929.34;5091709;28;20577;-68
2020/12/08 07:16:22;;;;;;;8.45;5.15;;;;;;;-0.12;61.80;99921.59;5092118;28;20089;-66
2020/12/08 07:18:49;;;;;;;12.95;7.22;;;;;;;-0.13;61.67;99927.59;5091619;28;20480;-67
2020/12/08 07:21:15;;;;;;;13.05;6.53;;;;;;;-0.10;61.76;99931.03;5091815;28;20044;-68
2020/12/08 07:23:42;;;;;;;15.50;8.30;;;;;;;-0.10;62.29;99923.31;5091456;28;20561;-67
2020/12/08 07:26:09;;;;;;;14.27;6.32;;;;;;;-0.12;62.23;99924.19;5091401;28;20682;-68
2020/12/08 07:28:35;;;;;;;11.85;6.50;;;;;;;-0.11;62.06;99926.75;5091790;28;20467;-67
2020/12/08 07:31:02;;;;;;;18.25;7.90;;;;;;;-0.11;61.95;99926.75;5091505;28;20105;-68
2020/12/08 07:33:31;;;;;;;10.55;5.47;;;;;;;-0.09;61.54;99940.47;5091769;28;20126;-68
2020/12/08 07:35:57;;;;;;;13.90;6.65;;;;;;;-0.11;61.06;99942.22;5091366;28;20056;-67
2020/12/08 07:38:23;;;;;;;14.30;6.72;;;;;;;-0.11;61.22;99933.63;5091890;28;20048;-67
2020/12/08 07:40:49;;;;;;;17.80;7.03;;;;;;;-0.08;61.14;99938.75;5091851;28;20419;-68
2020/12/08 07:43:17;;;;;;;11.35;6.82;;;;;;;-0.06;60.76;99937.03;5091559;28;20497;-68
2020/12/08 07:45:45;;;;;;;12.60;6.03;;;;;;;-0.09;61.02;99940.47;5090531;28;20052;-68
2020/12/08 07:48:12;;;;;;;13.95;7.60;;;;;;;-0.06;60.82;99942.19;5094632;28;20044;-68
2020/12/08 07:50:38;;;;;;;12.25;5.80;;;;;;;-0.06;60.78;99953.38;5094421;28;20054;-68
2020/12/08 07:53:06;;;;;;;22.90;11.55;;;;;;;-0.05;61.25;99949.94;5094636;28;20456;-67
2020/12/08 07:55:39;;;;;;;13.60;7.53;;;;;;;-0.01;61.16;99948.19;5094299;28;20060;-67
2020/12/08 07:58:05;;;;;;;16.85;8.13;;;;;;;0.03;60.58;99952.53;5093662;28;20087;-68
2020/12/08 08:00:32;;;;;;;11.05;6.07;;;;;;;0.03;60.89;99959.41;5094311;28;20561;-68
2020/12/08 08:02:58;;;;;;;7.53;4.47;;;;;;;0.03;60.81;99955.09;5093549;28;20071;-67
2020/12/08 08:05:24;;;;;;;15.38;6.95;;;;;;;-0.01;61.24;99943.03;5095054;28;20097;-68
2020/12/08 08:07:51;;;;;;;6.07;3.95;;;;;;;0.00;60.97;99968.00;5105909;28;20060;-69
2020/12/08 08:10:17;;;;;;;8.68;5.07;;;;;;;0.00;60.93;99952.53;5091020;28;20503;-68
2020/12/08 08:12:44;;;;;;;13.55;6.75;;;;;;;0.05;60.97;99953.38;5099332;28;20043;-68
2020/12/08 08:15:10;;;;;;;8.77;6.15;;;;;;;0.15;60.86;99949.06;5093976;28;20040;-68
2020/12/08 08:17:37;;;;;;;14.85;6.40;;;;;;;0.21;60.72;99951.66;5111875;28;20051;-68
2020/12/08 08:20:05;;;;;;;8.30;5.22;;;;;;;0.19;59.71;99956.78;5094140;28;20052;-68
2020/12/08 08:22:31;;;;;;;9.13;4.88;;;;;;;0.17;59.85;99960.22;5090773;28;20044;-67
2020/12/08 08:24:57;;;;;;;11.63;6.18;;;;;;;0.14;59.83;99952.50;5098109;28;20048;-67
2020/12/08 08:27:24;;;;;;;10.02;5.68;;;;;;;0.15;59.91;99960.22;5099545;28;20391;-69
2020/12/08 08:29:50;;;;;;;12.30;5.75;;;;;;;0.20;59.99;99971.38;5100428;28;20079;-68
2020/12/08 08:32:17;;;;;;;9.60;3.90;;;;;;;0.22;59.84;99963.69;5085081;28;20052;-67
2020/12/08 08:34:44;;;;;;;11.90;6.75;;;;;;;0.23;59.97;99967.97;5089896;28;20048;-67
2020/12/08 08:37:11;;;;;;;10.20;6.80;;;;;;;0.26;59.53;99968.81;5094277;28;20044;-66
2020/12/08 08:39:37;;;;;;;11.38;4.65;;;;;;;0.25;59.48;99971.41;5085741;28;20052;-68
2020/12/08 08:42:04;;;;;;;8.55;4.70;;;;;;;0.20;59.30;99973.97;5079828;28;20055;-67
2020/12/08 08:44:30;;;;;;;7.85;4.90;;;;;;;0.21;59.53;99962.81;5092231;28;20048;-66
2020/12/08 08:46:56;;;;;;;10.35;5.53;;;;;;;0.22;59.60;99972.28;5106676;28;20104;-65
2020/12/08 08:49:22;;;;;;;13.57;6.25;;;;;;;0.22;59.38;99977.44;5096824;28;20317;-67
2020/12/08 08:51:50;;;;;;;10.43;5.80;;;;;;;0.21;59.43;99991.19;5092732;28;20048;-66
2020/12/08 08:54:18;;;;;;;7.15;4.07;;;;;;;0.21;59.23;99974.84;5092820;28;20051;-67
2020/12/08 08:56:44;;;;;;;5.90;3.70;;;;;;;0.18;59.13;99987.72;5092931;28;20055;-67
2020/12/08 08:59:11;;;;;;;8.02;4.38;;;;;;;0.19;59.65;99982.56;5088090;28;20391;-65
2020/12/08 09:01:37;;;;;;;9.52;3.92;;;;;;;0.24;59.32;99998.91;5073045;28;20041;-67
2020/12/08 09:04:04;;;;;;;9.75;5.65;;;;;;;0.23;59.26;99993.75;5095632;28;20055;-67
2020/12/08 09:06:31;;;;;;;12.85;7.05;;;;;;;0.21;59.37;99996.34;5095627;28;20052;-67
2020/12/08 09:08:59;;;;;;;11.90;5.97;;;;;;;0.22;59.56;99998.06;5094170;28;20048;-68
2020/12/08 09:11:26;;;;;;;10.40;5.88;;;;;;;0.22;59.89;99995.47;5092355;28;20051;-68
2020/12/08 09:13:53;;;;;;;12.02;5.15;;;;;;;0.23;59.92;99991.19;5092504;28;20143;-67
2020/12/08 09:16:22;;;;;;;7.78;4.55;;;;;;;0.23;59.91;99993.75;5093223;28;20050;-67
2020/12/08 09:18:48;;;;;;;10.00;6.60;;;;;;;0.25;60.16;99992.88;5100401;28;20056;-66
2020/12/08 09:21:15;;;;;;;15.98;7.93;;;;;;;0.30;60.02;99998.88;5095438;28;20040;-66
2020/12/08 09:23:41;;;;;;;10.25;5.03;;;;;;;0.30;59.92;99998.88;5098764;28;20059;-67
2020/12/08 09:26:08;;;;;;;9.52;5.38;;;;;;;0.26;59.80;99979.13;5101260;28;20055;-67
2020/12/08 09:28:35;;;;;;;5.78;4.05;;;;;;;0.24;60.03;99990.31;5098753;28;20052;-67
2020/12/08 09:31:01;;;;;;;9.88;5.70;;;;;;;0.24;60.15;99973.13;5109277;28;20053;-66
2020/12/08 09:33:28;;;;;;;17.80;7.63;;;;;;;0.28;60.37;99977.41;5095120;28;20048;-66
2020/12/08 09:35:54;;;;;;;11.48;5.22;;;;;;;0.32;60.30;99975.69;5097568;28;20040;-66
2020/12/08 09:38:21;;;;;;;10.57;5.78;;;;;;;0.34;60.27;99971.38;5104535;28;20099;-66
2020/12/08 09:40:47;;;;;;;15.05;7.53;;;;;;;0.32;60.39;99986.00;5101736;28;20495;-66
2020/12/08 09:43:15;;;;;;;12.73;7.07;;;;;;;0.29;60.26;99981.69;5096142;28;20062;-66
2020/12/08 09:45:41;;;;;;;18.00;8.77;;;;;;;0.25;60.94;99982.56;5091446;28;20058;-67
2020/12/08 09:48:08;;;;;;;27.23;11.40;;;;;;;0.19;61.33;99987.72;5092062;28;20093;-68
2020/12/08 09:50:35;;;;;;;24.20;10.60;;;;;;;0.19;61.62;99992.88;5092041;28;20051;-68
2020/12/08 09:53:02;;;;;;;15.82;8.55;;;;;;;0.21;61.59;99986.03;5091712;28;20044;-66
2020/12/08 09:55:28;;;;;;;14.35;6.72;;;;;;;0.24;61.64;99980.84;5091681;28;20040;-69
2020/12/08 09:57:55;;;;;;;18.30;8.25;;;;;;;0.24;61.77;99977.41;5096961;28;20044;-66
2020/12/08 10:00:22;;;;;;;16.65;8.63;;;;;;;0.24;61.66;99982.56;5090860;28;20480;-67
2020/12/08 10:02:49;;;;;;;10.68;5.10;;;;;;;0.29;61.58;99973.97;5087866;28;20093;-68
2020/12/08 10:05:16;;;;;;;10.93;6.00;;;;;;;0.32;61.95;99982.56;5093088;28;20664;-68
2020/12/08 10:07:43;;;;;;;14.57;8.32;;;;;;;0.28;62.76;99977.41;5090946;28;20430;-67
2020/12/08 10:10:10;;;;;;;15.10;8.07;;;;;;;0.30;63.15;99980.84;5075129;28;20131;-68
2020/12/08 10:12:37;;;;;;;19.40;8.45;;;;;;;0.32;63.07;99967.94;5106073;28;20509;-67
2020/12/08 10:15:05;;;;;;;11.52;4.88;;;;;;;0.32;63.27;99978.25;5091396;28;20044;-70
2020/12/08 10:17:32;;;;;;;9.65;6.20;;;;;;;0.30;63.76;99967.94;5092747;28;20123;-67
2020/12/08 10:19:59;;;;;;;13.35;6.90;;;;;;;0.35;63.84;99974.81;5095342;28;20044;-68
2020/12/08 10:22:25;;;;;;;16.58;9.13;;;;;;;0.39;64.58;99964.47;5106559;28;20499;-67
2020/12/08 10:24:51;;;;;;;17.20;8.00;;;;;;;0.37;64.57;99970.50;5091549;28;20047;-68
2020/12/08 10:27:18;;;;;;;14.10;7.85;;;;;;;0.38;65.33;99979.97;5091003;28;20423;-70
2020/12/08 10:29:44;;;;;;;19.17;8.65;;;;;;;0.29;65.69;99986.84;5091344;28;20363;-69
2020/12/08 10:32:10;;;;;;;15.45;7.35;;;;;;;0.27;65.92;99978.28;5090628;28;20044;-68
2020/12/08 10:34:38;;;;;;;12.27;6.70;;;;;;;0.24;66.04;99980.00;5090713;28;20476;-70
2020/12/08 10:37:04;;;;;;;13.23;7.13;;;;;;;0.22;66.65;99977.44;5090783;28;20502;-69
2020/12/08 10:39:30;;;;;;;14.35;8.27;;;;;;;0.19;66.91;99977.41;5091346;28;20043;-71
2020/12/08 10:41:57;;;;;;;10.35;6.70;;;;;;;0.18;66.99;99973.09;5090959;28;20527;-71
2020/12/08 10:44:24;;;;;;;16.08;8.32;;;;;;;0.17;67.12;99965.38;5090937;28;20055;-75
2020/12/08 10:46:53;;;;;;;13.05;8.05;;;;;;;0.18;66.88;99972.25;5091749;28;20486;-72
2020/12/08 10:49:21;;;;;;;15.98;9.60;;;;;;;0.23;66.75;99971.41;5090751;28;20117;-71
2020/12/08 10:51:49;;;;;;;18.08;10.00;;;;;;;0.27;66.62;99975.69;5090590;28;20048;-72
2020/12/08 10:54:15;;;;;;;21.30;11.00;;;;;;;0.29;66.25;99979.13;5090978;28;20054;-70
2020/12/08 10:56:42;;;;;;;18.27;9.02;;;;;;;0.38;66.23;99982.53;5091095;28;20048;-70
2020/12/08 10:59:08;;;;;;;16.13;8.43;;;;;;;0.43;66.22;99980.84;5091481;28;20273;-76
2020/12/08 11:01:35;;;;;;;21.67;10.65;;;;;;;0.50;65.87;99972.22;5090756;28;20044;-73
2020/12/08 11:04:03;;;;;;;17.58;9.88;;;;;;;0.55;65.85;99971.34;5091685;28;20503;-76
2020/12/08 11:06:31;;;;;;;10.13;6.65;;;;;;;0.58;65.48;99973.03;5093628;28;20090;-76
2020/12/08 11:08:58;;;;;;;20.98;10.45;;;;;;;0.56;65.27;99977.34;5094968;28;20044;-76
2020/12/08 11:11:26;;;;;;;13.90;7.40;;;;;;;0.62;64.68;99974.75;5096319;28;20050;-78
2020/12/08 11:13:54;;;;;;;24.00;12.27;;;;;;;0.66;64.84;99978.22;5091909;28;20050;-76
2020/12/08 11:16:21;;;;;;;12.30;7.55;;;;;;;0.70;64.24;99974.75;5092700;28;20091;-75
2020/12/08 11:18:49;;;;;;;10.55;6.57;;;;;;;0.71;64.21;99979.91;5092620;28;20055;-72
2020/12/08 11:21:16;;;;;;;22.25;11.38;;;;;;;0.74;63.65;99981.63;5093469;28;20052;-73
2020/12/08 11:23:43;;;;;;;16.23;9.93;;;;;;;0.77;63.54;99977.28;5094966;28;20039;-70
2020/12/08 11:26:11;;;;;;;17.60;9.93;;;;;;;0.79;63.46;99985.88;5094770;28;20055;-70
2020/12/08 11:28:37;;;;;;;11.30;6.57;;;;;;;0.81;63.04;99989.31;5094290;28;20083;-71